sensor_id;sensor_type;location;lat;lon;timestamp;P1;durP1;ratioP1;P2;durP2;ratioP2
72123;SDS011;63818;37.134;-8.548;2023-04-19T00:01:16;10.1;;;5.3;;
72123;SDS011;63818;37.134;-8.548;2023-04-19T00:06:05;9.6;;;5.1;;
72123;SDS011;63818;37.134;-8.548;2023-04-19T00:10:51;13.2;;;5.0;;
72123;SDS011;63818;37.134;-8.548;2023-04-19T00:15:37;13.1;;;5.2;;
72123;SDS011;63818;37.134;-8.548;2023-04-19T00:20:23;9.8;;;5.5;;
72123;SDS011;63818;37.134;-8.548;2023-04-19T00:25:09;12.4;;;5.6;;
72123;SDS011;63818;37.134;-8.548;2023-04-19T00:29:55;12.0;;;5.3;;
72123;SDS011;63818;37.134;-8.548;2023-04-19T00:34:41;11.9;;;5.2;;
72123;SDS011;63818;37.134;-8.548;2023-04-19T00:39:30;12.9;;;5.5;;
72123;SDS011;63818;37.134;-8.548;2023-04-19T00:44:17;13.1;;;5.5;;
72123;SDS011;63818;37.134;-8.548;2023-04-19T00:49:07;11.5;;;5.3;;
72123;SDS011;63818;37.134;-8.548;2023-04-19T00:53:58;10.4;;;5.4;;
72123;SDS011;63818;37.134;-8.548;2023-04-19T00:58:45;11.0;;;5.4;;
72123;SDS011;63818;37.134;-8.548;2023-04-19T01:03:35;11.0;;;5.2;;
72123;SDS011;63818;37.134;-8.548;2023-04-19T01:08:23;10.7;;;5.1;;
72123;SDS011;63818;37.134;-8.548;2023-04-19T01:13:11;12.5;;;5.4;;
72123;SDS011;63818;37.134;-8.548;2023-04-19T01:17:57;13.8;;;5.3;;
72123;SDS011;63818;37.134;-8.548;2023-04-19T01:22:43;12.0;;;4.8;;
72123;SDS011;63818;37.134;-8.548;2023-04-19T01:27:29;12.3;;;4.9;;
72123;SDS011;63818;37.134;-8.548;2023-04-19T01:32:20;10.8;;;4.9;;
72123;SDS011;63818;37.134;-8.548;2023-04-19T01:37:08;9.2;;;5.0;;
72123;SDS011;63818;37.134;-8.548;2023-04-19T01:41:54;10.2;;;5.3;;
72123;SDS011;63818;37.134;-8.548;2023-04-19T01:46:40;12.0;;;5.3;;
72123;SDS011;63818;37.134;-8.548;2023-04-19T01:51:30;14.4;;;5.5;;
72123;SDS011;63818;37.134;-8.548;2023-04-19T01:56:17;13.5;;;5.3;;
72123;SDS011;63818;37.134;-8.548;2023-04-19T02:01:05;11.0;;;5.1;;
72123;SDS011;63818;37.134;-8.548;2023-04-19T02:05:56;9.8;;;5.1;;
72123;SDS011;63818;37.134;-8.548;2023-04-19T02:10:44;10.4;;;4.9;;
72123;SDS011;63818;37.134;-8.548;2023-04-19T02:15:30;11.5;;;5.1;;
72123;SDS011;63818;37.134;-8.548;2023-04-19T02:20:16;10.1;;;5.2;;
72123;SDS011;63818;37.134;-8.548;2023-04-19T02:25:05;9.8;;;5.0;;
72123;SDS011;63818;37.134;-8.548;2023-04-19T02:29:51;11.2;;;5.1;;
72123;SDS011;63818;37.134;-8.548;2023-04-19T02:34:39;13.5;;;5.2;;
72123;SDS011;63818;37.134;-8.548;2023-04-19T02:39:24;12.6;;;5.2;;
72123;SDS011;63818;37.134;-8.548;2023-04-19T02:44:11;11.6;;;5.5;;
72123;SDS011;63818;37.134;-8.548;2023-04-19T02:48:57;11.7;;;5.5;;
72123;SDS011;63818;37.134;-8.548;2023-04-19T02:53:46;12.5;;;5.5;;
72123;SDS011;63818;37.134;-8.548;2023-04-19T02:58:34;14.1;;;5.7;;
72123;SDS011;63818;37.134;-8.548;2023-04-19T03:03:21;13.8;;;5.7;;
72123;SDS011;63818;37.134;-8.548;2023-04-19T03:08:07;12.3;;;5.4;;
72123;SDS011;63818;37.134;-8.548;2023-04-19T03:12:53;13.1;;;5.3;;
72123;SDS011;63818;37.134;-8.548;2023-04-19T03:17:42;20.8;;;5.6;;
72123;SDS011;63818;37.134;-8.548;2023-04-19T03:22:28;21.8;;;5.6;;
72123;SDS011;63818;37.134;-8.548;2023-04-19T03:27:14;17.9;;;5.8;;
72123;SDS011;63818;37.134;-8.548;2023-04-19T03:32:02;15.3;;;6.0;;
72123;SDS011;63818;37.134;-8.548;2023-04-19T03:36:48;15.2;;;5.8;;
72123;SDS011;63818;37.134;-8.548;2023-04-19T03:41:34;14.8;;;5.4;;
72123;SDS011;63818;37.134;-8.548;2023-04-19T03:46:20;16.3;;;5.5;;
72123;SDS011;63818;37.134;-8.548;2023-04-19T03:51:09;18.5;;;5.6;;
72123;SDS011;63818;37.134;-8.548;2023-04-19T03:55:55;17.9;;;6.0;;
72123;SDS011;63818;37.134;-8.548;2023-04-19T04:00:40;19.7;;;6.3;;
72123;SDS011;63818;37.134;-8.548;2023-04-19T04:05:28;17.4;;;5.8;;
72123;SDS011;63818;37.134;-8.548;2023-04-19T04:10:14;14.2;;;5.8;;
72123;SDS011;63818;37.134;-8.548;2023-04-19T04:15:00;13.7;;;6.1;;
72123;SDS011;63818;37.134;-8.548;2023-04-19T04:19:47;15.6;;;6.1;;
72123;SDS011;63818;37.134;-8.548;2023-04-19T04:24:39;20.5;;;5.9;;
72123;SDS011;63818;37.134;-8.548;2023-04-19T04:29:29;18.0;;;5.9;;
72123;SDS011;63818;37.134;-8.548;2023-04-19T04:34:21;13.3;;;5.8;;
72123;SDS011;63818;37.134;-8.548;2023-04-19T04:39:07;14.1;;;6.0;;
72123;SDS011;63818;37.134;-8.548;2023-04-19T04:43:55;14.9;;;5.9;;
72123;SDS011;63818;37.134;-8.548;2023-04-19T04:48:41;16.2;;;6.1;;
72123;SDS011;63818;37.134;-8.548;2023-04-19T04:53:30;18.1;;;6.5;;
72123;SDS011;63818;37.134;-8.548;2023-04-19T04:58:18;16.5;;;6.1;;
72123;SDS011;63818;37.134;-8.548;2023-04-19T05:03:06;14.7;;;6.0;;
72123;SDS011;63818;37.134;-8.548;2023-04-19T05:07:52;14.3;;;5.6;;
72123;SDS011;63818;37.134;-8.548;2023-04-19T05:12:40;15.0;;;5.6;;
72123;SDS011;63818;37.134;-8.548;2023-04-19T05:17:26;15.2;;;5.6;;
72123;SDS011;63818;37.134;-8.548;2023-04-19T05:22:22;12.1;;;5.5;;
72123;SDS011;63818;37.134;-8.548;2023-04-19T05:27:10;11.5;;;5.5;;
72123;SDS011;63818;37.134;-8.548;2023-04-19T05:31:56;14.3;;;5.5;;
72123;SDS011;63818;37.134;-8.548;2023-04-19T05:36:41;16.9;;;6.2;;
72123;SDS011;63818;37.134;-8.548;2023-04-19T05:41:27;18.6;;;6.5;;
72123;SDS011;63818;37.134;-8.548;2023-04-19T05:46:13;18.1;;;6.2;;
72123;SDS011;63818;37.134;-8.548;2023-04-19T05:51:07;17.0;;;6.1;;
72123;SDS011;63818;37.134;-8.548;2023-04-19T05:55:56;16.9;;;6.1;;
72123;SDS011;63818;37.134;-8.548;2023-04-19T06:00:44;16.6;;;6.0;;
72123;SDS011;63818;37.134;-8.548;2023-04-19T06:05:30;16.3;;;5.7;;
72123;SDS011;63818;37.134;-8.548;2023-04-19T06:10:16;14.1;;;5.5;;
72123;SDS011;63818;37.134;-8.548;2023-04-19T06:15:02;13.0;;;5.8;;
72123;SDS011;63818;37.134;-8.548;2023-04-19T06:19:49;16.2;;;5.8;;
72123;SDS011;63818;37.134;-8.548;2023-04-19T06:24:37;16.5;;;5.6;;
72123;SDS011;63818;37.134;-8.548;2023-04-19T06:29:23;13.5;;;5.6;;
72123;SDS011;63818;37.134;-8.548;2023-04-19T06:34:09;14.3;;;5.7;;
72123;SDS011;63818;37.134;-8.548;2023-04-19T06:38:55;18.8;;;5.9;;
72123;SDS011;63818;37.134;-8.548;2023-04-19T06:43:41;21.5;;;6.7;;
72123;SDS011;63818;37.134;-8.548;2023-04-19T06:48:27;18.0;;;6.5;;
72123;SDS011;63818;37.134;-8.548;2023-04-19T06:53:18;17.0;;;6.1;;
72123;SDS011;63818;37.134;-8.548;2023-04-19T06:58:04;18.1;;;6.4;;
72123;SDS011;63818;37.134;-8.548;2023-04-19T07:02:50;17.6;;;6.4;;
72123;SDS011;63818;37.134;-8.548;2023-04-19T07:07:36;17.3;;;6.1;;
72123;SDS011;63818;37.134;-8.548;2023-04-19T07:12:22;18.1;;;6.0;;
72123;SDS011;63818;37.134;-8.548;2023-04-19T07:17:08;18.8;;;6.1;;
72123;SDS011;63818;37.134;-8.548;2023-04-19T07:21:54;19.7;;;6.2;;
72123;SDS011;63818;37.134;-8.548;2023-04-19T07:26:42;20.4;;;6.6;;
72123;SDS011;63818;37.134;-8.548;2023-04-19T07:31:28;16.2;;;6.6;;
72123;SDS011;63818;37.134;-8.548;2023-04-19T07:36:14;17.3;;;6.2;;
72123;SDS011;63818;37.134;-8.548;2023-04-19T07:41:05;21.8;;;7.1;;
72123;SDS011;63818;37.134;-8.548;2023-04-19T07:45:51;22.0;;;7.0;;
72123;SDS011;63818;37.134;-8.548;2023-04-19T07:50:39;18.6;;;5.7;;
72123;SDS011;63818;37.134;-8.548;2023-04-19T07:55:28;17.1;;;6.0;;
72123;SDS011;63818;37.134;-8.548;2023-04-19T08:00:14;17.9;;;6.2;;
72123;SDS011;63818;37.134;-8.548;2023-04-19T08:05:02;14.4;;;6.0;;
72123;SDS011;63818;37.134;-8.548;2023-04-19T08:09:48;12.3;;;7.0;;
72123;SDS011;63818;37.134;-8.548;2023-04-19T08:14:37;24.8;;;7.0;;
72123;SDS011;63818;37.134;-8.548;2023-04-19T08:19:23;19.6;;;6.7;;
72123;SDS011;63818;37.134;-8.548;2023-04-19T08:24:09;18.4;;;6.4;;
72123;SDS011;63818;37.134;-8.548;2023-04-19T08:28:57;15.8;;;5.5;;
72123;SDS011;63818;37.134;-8.548;2023-04-19T08:33:43;13.9;;;5.3;;
72123;SDS011;63818;37.134;-8.548;2023-04-19T08:38:30;13.9;;;5.3;;
72123;SDS011;63818;37.134;-8.548;2023-04-19T08:43:16;14.5;;;5.4;;
72123;SDS011;63818;37.134;-8.548;2023-04-19T08:48:04;14.9;;;5.2;;
72123;SDS011;63818;37.134;-8.548;2023-04-19T08:52:53;16.0;;;5.4;;
72123;SDS011;63818;37.134;-8.548;2023-04-19T08:57:39;18.2;;;5.8;;
72123;SDS011;63818;37.134;-8.548;2023-04-19T09:02:27;15.6;;;5.7;;
72123;SDS011;63818;37.134;-8.548;2023-04-19T09:07:34;10.6;;;5.4;;
72123;SDS011;63818;37.134;-8.548;2023-04-19T09:12:22;9.5;;;5.1;;
72123;SDS011;63818;37.134;-8.548;2023-04-19T09:17:17;11.1;;;4.9;;
72123;SDS011;63818;37.134;-8.548;2023-04-19T09:22:05;13.9;;;5.4;;
72123;SDS011;63818;37.134;-8.548;2023-04-19T09:27:01;13.2;;;5.5;;
72123;SDS011;63818;37.134;-8.548;2023-04-19T09:31:55;11.8;;;5.4;;
72123;SDS011;63818;37.134;-8.548;2023-04-19T09:36:44;13.8;;;5.3;;
72123;SDS011;63818;37.134;-8.548;2023-04-19T09:41:30;11.4;;;4.9;;
72123;SDS011;63818;37.134;-8.548;2023-04-19T09:46:52;11.1;;;5.0;;
72123;SDS011;63818;37.134;-8.548;2023-04-19T09:51:41;12.1;;;5.3;;
72123;SDS011;63818;37.134;-8.548;2023-04-19T09:56:28;11.5;;;5.5;;
72123;SDS011;63818;37.134;-8.548;2023-04-19T10:01:14;14.2;;;5.5;;
72123;SDS011;63818;37.134;-8.548;2023-04-19T10:06:00;16.4;;;6.1;;
72123;SDS011;63818;37.134;-8.548;2023-04-19T10:10:47;25.0;;;6.3;;
72123;SDS011;63818;37.134;-8.548;2023-04-19T10:15:34;17.1;;;5.8;;
72123;SDS011;63818;37.134;-8.548;2023-04-19T10:20:21;16.8;;;5.4;;
72123;SDS011;63818;37.134;-8.548;2023-04-19T10:25:10;17.7;;;5.7;;
72123;SDS011;63818;37.134;-8.548;2023-04-19T10:30:00;18.2;;;6.1;;
72123;SDS011;63818;37.134;-8.548;2023-04-19T10:34:47;17.4;;;5.7;;
72123;SDS011;63818;37.134;-8.548;2023-04-19T10:39:42;17.2;;;5.2;;
72123;SDS011;63818;37.134;-8.548;2023-04-19T10:44:29;15.4;;;5.4;;
72123;SDS011;63818;37.134;-8.548;2023-04-19T10:49:17;12.5;;;5.5;;
72123;SDS011;63818;37.134;-8.548;2023-04-19T10:54:08;13.6;;;5.2;;
72123;SDS011;63818;37.134;-8.548;2023-04-19T10:59:17;11.5;;;4.8;;
72123;SDS011;63818;37.134;-8.548;2023-04-19T11:04:03;10.4;;;4.7;;
72123;SDS011;63818;37.134;-8.548;2023-04-19T11:08:50;12.5;;;4.8;;
72123;SDS011;63818;37.134;-8.548;2023-04-19T11:13:37;13.0;;;4.9;;
72123;SDS011;63818;37.134;-8.548;2023-04-19T11:18:23;13.8;;;4.8;;
72123;SDS011;63818;37.134;-8.548;2023-04-19T11:23:17;15.7;;;5.1;;
72123;SDS011;63818;37.134;-8.548;2023-04-19T11:28:03;15.5;;;5.1;;
72123;SDS011;63818;37.134;-8.548;2023-04-19T11:32:51;13.8;;;4.9;;
72123;SDS011;63818;37.134;-8.548;2023-04-19T11:37:38;12.0;;;5.3;;
72123;SDS011;63818;37.134;-8.548;2023-04-19T11:42:24;10.5;;;5.2;;
72123;SDS011;63818;37.134;-8.548;2023-04-19T11:47:12;11.7;;;4.9;;
72123;SDS011;63818;37.134;-8.548;2023-04-19T11:51:59;13.0;;;5.0;;
72123;SDS011;63818;37.134;-8.548;2023-04-19T11:57:02;11.5;;;5.4;;
72123;SDS011;63818;37.134;-8.548;2023-04-19T12:01:50;10.4;;;5.6;;
72123;SDS011;63818;37.134;-8.548;2023-04-19T12:06:36;10.0;;;5.1;;
72123;SDS011;63818;37.134;-8.548;2023-04-19T12:11:22;12.3;;;5.1;;
72123;SDS011;63818;37.134;-8.548;2023-04-19T12:16:10;13.5;;;5.1;;
72123;SDS011;63818;37.134;-8.548;2023-04-19T12:20:57;13.1;;;5.1;;
72123;SDS011;63818;37.134;-8.548;2023-04-19T12:25:45;12.9;;;5.3;;
72123;SDS011;63818;37.134;-8.548;2023-04-19T12:30:32;11.9;;;4.9;;
72123;SDS011;63818;37.134;-8.548;2023-04-19T12:35:23;13.1;;;4.8;;
72123;SDS011;63818;37.134;-8.548;2023-04-19T12:40:11;13.4;;;4.8;;
72123;SDS011;63818;37.134;-8.548;2023-04-19T12:44:58;15.1;;;4.9;;
72123;SDS011;63818;37.134;-8.548;2023-04-19T12:49:44;14.7;;;5.1;;
72123;SDS011;63818;37.134;-8.548;2023-04-19T12:54:30;11.7;;;5.3;;
72123;SDS011;63818;37.134;-8.548;2023-04-19T12:59:19;12.1;;;5.2;;
72123;SDS011;63818;37.134;-8.548;2023-04-19T13:04:05;15.7;;;5.0;;
72123;SDS011;63818;37.134;-8.548;2023-04-19T13:08:52;15.4;;;4.9;;
72123;SDS011;63818;37.134;-8.548;2023-04-19T13:13:38;13.3;;;4.9;;
72123;SDS011;63818;37.134;-8.548;2023-04-19T13:18:30;15.9;;;4.8;;
72123;SDS011;63818;37.134;-8.548;2023-04-19T13:23:16;13.9;;;4.9;;
72123;SDS011;63818;37.134;-8.548;2023-04-19T13:28:05;13.6;;;5.3;;
72123;SDS011;63818;37.134;-8.548;2023-04-19T13:32:51;14.2;;;5.1;;
72123;SDS011;63818;37.134;-8.548;2023-04-19T13:37:37;11.6;;;4.9;;
72123;SDS011;63818;37.134;-8.548;2023-04-19T13:42:24;13.4;;;4.9;;
72123;SDS011;63818;37.134;-8.548;2023-04-19T13:47:10;13.5;;;4.8;;
72123;SDS011;63818;37.134;-8.548;2023-04-19T13:51:58;11.8;;;4.7;;
72123;SDS011;63818;37.134;-8.548;2023-04-19T13:56:45;12.2;;;4.8;;
72123;SDS011;63818;37.134;-8.548;2023-04-19T14:01:31;14.6;;;4.9;;
72123;SDS011;63818;37.134;-8.548;2023-04-19T14:06:17;12.9;;;5.2;;
72123;SDS011;63818;37.134;-8.548;2023-04-19T14:11:03;11.9;;;5.0;;
72123;SDS011;63818;37.134;-8.548;2023-04-19T14:15:52;13.8;;;5.1;;
72123;SDS011;63818;37.134;-8.548;2023-04-19T14:20:38;14.2;;;5.2;;
72123;SDS011;63818;37.134;-8.548;2023-04-19T14:25:34;13.8;;;4.9;;
72123;SDS011;63818;37.134;-8.548;2023-04-19T14:30:20;14.2;;;5.0;;
72123;SDS011;63818;37.134;-8.548;2023-04-19T14:35:11;13.5;;;5.0;;
72123;SDS011;63818;37.134;-8.548;2023-04-19T14:39:59;10.1;;;4.8;;
72123;SDS011;63818;37.134;-8.548;2023-04-19T14:44:48;9.6;;;4.8;;
72123;SDS011;63818;37.134;-8.548;2023-04-19T14:49:37;9.6;;;5.0;;
72123;SDS011;63818;37.134;-8.548;2023-04-19T14:54:26;11.9;;;5.0;;
72123;SDS011;63818;37.134;-8.548;2023-04-19T14:59:12;12.7;;;5.0;;
72123;SDS011;63818;37.134;-8.548;2023-04-19T15:03:58;14.9;;;4.9;;
72123;SDS011;63818;37.134;-8.548;2023-04-19T15:08:44;16.8;;;4.8;;
72123;SDS011;63818;37.134;-8.548;2023-04-19T15:13:32;12.8;;;4.8;;
72123;SDS011;63818;37.134;-8.548;2023-04-19T15:18:18;12.4;;;4.8;;
72123;SDS011;63818;37.134;-8.548;2023-04-19T15:23:07;14.2;;;5.0;;
72123;SDS011;63818;37.134;-8.548;2023-04-19T15:27:53;13.5;;;5.3;;
72123;SDS011;63818;37.134;-8.548;2023-04-19T15:32:41;11.8;;;5.1;;
72123;SDS011;63818;37.134;-8.548;2023-04-19T15:37:27;13.4;;;4.9;;
72123;SDS011;63818;37.134;-8.548;2023-04-19T15:42:13;14.5;;;5.1;;
72123;SDS011;63818;37.134;-8.548;2023-04-19T15:47:00;14.6;;;5.1;;
72123;SDS011;63818;37.134;-8.548;2023-04-19T15:51:46;15.8;;;5.4;;
72123;SDS011;63818;37.134;-8.548;2023-04-19T15:56:32;13.8;;;5.3;;
72123;SDS011;63818;37.134;-8.548;2023-04-19T16:01:18;15.9;;;6.0;;
72123;SDS011;63818;37.134;-8.548;2023-04-19T16:06:05;19.3;;;6.6;;
72123;SDS011;63818;37.134;-8.548;2023-04-19T16:10:51;19.8;;;6.6;;
72123;SDS011;63818;37.134;-8.548;2023-04-19T16:15:37;21.1;;;6.6;;
72123;SDS011;63818;37.134;-8.548;2023-04-19T16:20:23;20.6;;;6.6;;
72123;SDS011;63818;37.134;-8.548;2023-04-19T16:25:09;20.9;;;6.8;;
72123;SDS011;63818;37.134;-8.548;2023-04-19T16:29:57;20.8;;;6.6;;
72123;SDS011;63818;37.134;-8.548;2023-04-19T16:34:43;19.3;;;6.5;;
72123;SDS011;63818;37.134;-8.548;2023-04-19T16:39:34;19.6;;;6.6;;
72123;SDS011;63818;37.134;-8.548;2023-04-19T16:44:20;22.4;;;7.0;;
72123;SDS011;63818;37.134;-8.548;2023-04-19T16:49:09;25.1;;;7.2;;
72123;SDS011;63818;37.134;-8.548;2023-04-19T16:53:55;22.0;;;6.8;;
72123;SDS011;63818;37.134;-8.548;2023-04-19T16:58:44;18.2;;;7.0;;
72123;SDS011;63818;37.134;-8.548;2023-04-19T17:03:30;15.4;;;7.1;;
72123;SDS011;63818;37.134;-8.548;2023-04-19T17:08:16;16.6;;;6.4;;
72123;SDS011;63818;37.134;-8.548;2023-04-19T17:13:02;16.8;;;6.1;;
72123;SDS011;63818;37.134;-8.548;2023-04-19T17:17:48;14.8;;;5.8;;
72123;SDS011;63818;37.134;-8.548;2023-04-19T17:22:34;15.1;;;5.9;;
72123;SDS011;63818;37.134;-8.548;2023-04-19T17:27:23;15.2;;;5.9;;
72123;SDS011;63818;37.134;-8.548;2023-04-19T17:32:11;15.5;;;5.9;;
72123;SDS011;63818;37.134;-8.548;2023-04-19T17:36:56;16.5;;;5.9;;
72123;SDS011;63818;37.134;-8.548;2023-04-19T17:41:42;14.8;;;6.1;;
72123;SDS011;63818;37.134;-8.548;2023-04-19T17:46:28;15.1;;;6.2;;
72123;SDS011;63818;37.134;-8.548;2023-04-19T17:51:14;15.5;;;6.0;;
72123;SDS011;63818;37.134;-8.548;2023-04-19T17:56:00;15.6;;;6.2;;
72123;SDS011;63818;37.134;-8.548;2023-04-19T18:00:46;18.4;;;6.6;;
72123;SDS011;63818;37.134;-8.548;2023-04-19T18:05:32;17.3;;;6.4;;
72123;SDS011;63818;37.134;-8.548;2023-04-19T18:10:19;13.8;;;5.9;;
72123;SDS011;63818;37.134;-8.548;2023-04-19T18:15:06;13.9;;;5.9;;
72123;SDS011;63818;37.134;-8.548;2023-04-19T18:19:52;14.8;;;6.1;;
72123;SDS011;63818;37.134;-8.548;2023-04-19T18:24:38;19.3;;;6.5;;
72123;SDS011;63818;37.134;-8.548;2023-04-19T18:29:24;19.1;;;6.4;;
72123;SDS011;63818;37.134;-8.548;2023-04-19T18:34:12;17.8;;;6.1;;
72123;SDS011;63818;37.134;-8.548;2023-04-19T18:38:58;21.3;;;6.8;;
72123;SDS011;63818;37.134;-8.548;2023-04-19T18:43:44;18.5;;;7.0;;
72123;SDS011;63818;37.134;-8.548;2023-04-19T18:48:29;20.4;;;6.6;;
72123;SDS011;63818;37.134;-8.548;2023-04-19T18:53:18;19.6;;;6.6;;
72123;SDS011;63818;37.134;-8.548;2023-04-19T18:58:03;17.2;;;6.6;;
72123;SDS011;63818;37.134;-8.548;2023-04-19T19:02:49;18.8;;;6.4;;
72123;SDS011;63818;37.134;-8.548;2023-04-19T19:07:35;19.8;;;6.4;;
72123;SDS011;63818;37.134;-8.548;2023-04-19T19:12:21;19.6;;;7.0;;
72123;SDS011;63818;37.134;-8.548;2023-04-19T19:17:07;18.1;;;7.0;;
72123;SDS011;63818;37.134;-8.548;2023-04-19T19:21:55;19.5;;;6.6;;
72123;SDS011;63818;37.134;-8.548;2023-04-19T19:26:42;22.0;;;6.9;;
72123;SDS011;63818;37.134;-8.548;2023-04-19T19:31:27;20.0;;;7.0;;
72123;SDS011;63818;37.134;-8.548;2023-04-19T19:36:13;21.8;;;7.6;;
72123;SDS011;63818;37.134;-8.548;2023-04-19T19:40:59;23.5;;;8.0;;
72123;SDS011;63818;37.134;-8.548;2023-04-19T19:45:45;23.9;;;7.3;;
72123;SDS011;63818;37.134;-8.548;2023-04-19T19:50:31;25.7;;;7.4;;
72123;SDS011;63818;37.134;-8.548;2023-04-19T19:55:19;25.6;;;7.5;;
72123;SDS011;63818;37.134;-8.548;2023-04-19T20:00:06;28.5;;;7.7;;
72123;SDS011;63818;37.134;-8.548;2023-04-19T20:04:52;25.8;;;7.4;;
72123;SDS011;63818;37.134;-8.548;2023-04-19T20:09:38;24.8;;;7.5;;
72123;SDS011;63818;37.134;-8.548;2023-04-19T20:14:25;27.8;;;8.3;;
72123;SDS011;63818;37.134;-8.548;2023-04-19T20:19:12;26.5;;;8.0;;
72123;SDS011;63818;37.134;-8.548;2023-04-19T20:23:58;25.6;;;7.7;;
72123;SDS011;63818;37.134;-8.548;2023-04-19T20:28:44;24.5;;;7.7;;
72123;SDS011;63818;37.134;-8.548;2023-04-19T20:33:30;24.3;;;7.5;;
72123;SDS011;63818;37.134;-8.548;2023-04-19T20:38:19;22.9;;;7.4;;
72123;SDS011;63818;37.134;-8.548;2023-04-19T20:43:07;23.2;;;7.5;;
72123;SDS011;63818;37.134;-8.548;2023-04-19T20:47:55;24.2;;;7.7;;
72123;SDS011;63818;37.134;-8.548;2023-04-19T20:52:41;24.3;;;7.9;;
72123;SDS011;63818;37.134;-8.548;2023-04-19T20:57:27;21.5;;;7.4;;
72123;SDS011;63818;37.134;-8.548;2023-04-19T21:02:15;16.9;;;6.8;;
72123;SDS011;63818;37.134;-8.548;2023-04-19T21:07:01;19.8;;;7.2;;
72123;SDS011;63818;37.134;-8.548;2023-04-19T21:11:47;25.1;;;7.5;;
72123;SDS011;63818;37.134;-8.548;2023-04-19T21:16:33;25.9;;;7.4;;
72123;SDS011;63818;37.134;-8.548;2023-04-19T21:21:20;24.7;;;7.6;;
72123;SDS011;63818;37.134;-8.548;2023-04-19T21:26:06;24.1;;;7.5;;
72123;SDS011;63818;37.134;-8.548;2023-04-19T21:30:52;22.8;;;7.5;;
72123;SDS011;63818;37.134;-8.548;2023-04-19T21:35:38;24.6;;;7.8;;
72123;SDS011;63818;37.134;-8.548;2023-04-19T21:40:25;30.6;;;7.8;;
72123;SDS011;63818;37.134;-8.548;2023-04-19T21:45:11;27.2;;;7.8;;
72123;SDS011;63818;37.134;-8.548;2023-04-19T21:49:59;18.5;;;7.4;;
72123;SDS011;63818;37.134;-8.548;2023-04-19T21:54:45;19.9;;;7.2;;
72123;SDS011;63818;37.134;-8.548;2023-04-19T21:59:33;23.1;;;7.9;;
72123;SDS011;63818;37.134;-8.548;2023-04-19T22:04:19;23.8;;;8.3;;
72123;SDS011;63818;37.134;-8.548;2023-04-19T22:09:06;24.2;;;7.8;;
72123;SDS011;63818;37.134;-8.548;2023-04-19T22:13:52;25.2;;;7.8;;
72123;SDS011;63818;37.134;-8.548;2023-04-19T22:18:38;26.8;;;8.0;;
72123;SDS011;63818;37.134;-8.548;2023-04-19T22:23:25;26.6;;;8.0;;
72123;SDS011;63818;37.134;-8.548;2023-04-19T22:28:14;28.3;;;7.6;;
72123;SDS011;63818;37.134;-8.548;2023-04-19T22:33:02;24.9;;;7.4;;
72123;SDS011;63818;37.134;-8.548;2023-04-19T22:37:48;19.2;;;7.3;;
72123;SDS011;63818;37.134;-8.548;2023-04-19T22:42:35;20.9;;;7.4;;
72123;SDS011;63818;37.134;-8.548;2023-04-19T22:47:21;22.8;;;7.6;;
72123;SDS011;63818;37.134;-8.548;2023-04-19T22:52:07;20.6;;;7.5;;
72123;SDS011;63818;37.134;-8.548;2023-04-19T22:56:53;20.2;;;7.5;;
72123;SDS011;63818;37.134;-8.548;2023-04-19T23:01:39;27.1;;;7.8;;
72123;SDS011;63818;37.134;-8.548;2023-04-19T23:06:26;18.0;;;7.8;;
72123;SDS011;63818;37.134;-8.548;2023-04-19T23:11:15;20.6;;;7.5;;
72123;SDS011;63818;37.134;-8.548;2023-04-19T23:16:01;22.5;;;7.5;;
72123;SDS011;63818;37.134;-8.548;2023-04-19T23:20:47;22.0;;;7.7;;
72123;SDS011;63818;37.134;-8.548;2023-04-19T23:25:36;19.2;;;7.7;;
72123;SDS011;63818;37.134;-8.548;2023-04-19T23:30:22;18.4;;;7.8;;
72123;SDS011;63818;37.134;-8.548;2023-04-19T23:35:08;21.7;;;7.9;;
72123;SDS011;63818;37.134;-8.548;2023-04-19T23:39:57;20.7;;;7.4;;
72123;SDS011;63818;37.134;-8.548;2023-04-19T23:44:43;20.8;;;7.2;;
72123;SDS011;63818;37.134;-8.548;2023-04-19T23:49:31;22.2;;;7.9;;
72123;SDS011;63818;37.134;-8.548;2023-04-19T23:54:17;19.9;;;7.9;;
72123;SDS011;63818;37.134;-8.548;2023-04-19T23:59:03;20.4;;;7.8;;
